sensor_id;sensor_type;location;lat;lon;timestamp;P1;durP1;ratioP1;P2;durP2;ratioP2
51499;SDS011;39101;53.478;6.158;2024-03-22T00:02:06;43.60;;;29.20;;
51499;SDS011;39101;53.478;6.158;2024-03-22T00:04:37;47.93;;;27.93;;
51499;SDS011;39101;53.478;6.158;2024-03-22T00:07:03;50.30;;;29.77;;
51499;SDS011;39101;53.478;6.158;2024-03-22T00:09:30;51.97;;;30.80;;
51499;SDS011;39101;53.478;6.158;2024-03-22T00:11:57;54.07;;;31.10;;
51499;SDS011;39101;53.478;6.158;2024-03-22T00:14:23;51.87;;;30.40;;
51499;SDS011;39101;53.478;6.158;2024-03-22T00:16:49;53.20;;;30.60;;
51499;SDS011;39101;53.478;6.158;2024-03-22T00:19:15;54.07;;;31.50;;
51499;SDS011;39101;53.478;6.158;2024-03-22T00:21:41;47.30;;;30.77;;
51499;SDS011;39101;53.478;6.158;2024-03-22T00:24:07;52.37;;;32.33;;
51499;SDS011;39101;53.478;6.158;2024-03-22T00:26:33;50.00;;;32.50;;
51499;SDS011;39101;53.478;6.158;2024-03-22T00:29:01;56.00;;;32.67;;
51499;SDS011;39101;53.478;6.158;2024-03-22T00:31:28;51.53;;;31.47;;
51499;SDS011;39101;53.478;6.158;2024-03-22T00:33:59;51.67;;;33.20;;
51499;SDS011;39101;53.478;6.158;2024-03-22T00:36:25;55.63;;;33.63;;
51499;SDS011;39101;53.478;6.158;2024-03-22T00:38:50;56.97;;;34.80;;
51499;SDS011;39101;53.478;6.158;2024-03-22T00:41:17;52.47;;;31.90;;
51499;SDS011;39101;53.478;6.158;2024-03-22T00:43:43;56.70;;;34.43;;
51499;SDS011;39101;53.478;6.158;2024-03-22T00:46:09;48.60;;;29.07;;
51499;SDS011;39101;53.478;6.158;2024-03-22T00:48:34;55.90;;;34.10;;
51499;SDS011;39101;53.478;6.158;2024-03-22T00:51:01;54.53;;;33.57;;
51499;SDS011;39101;53.478;6.158;2024-03-22T00:53:27;55.57;;;32.27;;
51499;SDS011;39101;53.478;6.158;2024-03-22T00:55:54;54.23;;;33.13;;
51499;SDS011;39101;53.478;6.158;2024-03-22T00:58:22;58.17;;;34.47;;
51499;SDS011;39101;53.478;6.158;2024-03-22T01:00:49;54.47;;;33.57;;
51499;SDS011;39101;53.478;6.158;2024-03-22T01:03:15;54.27;;;31.83;;
51499;SDS011;39101;53.478;6.158;2024-03-22T01:05:42;59.20;;;34.77;;
51499;SDS011;39101;53.478;6.158;2024-03-22T01:08:07;58.33;;;36.57;;
51499;SDS011;39101;53.478;6.158;2024-03-22T01:10:36;56.47;;;35.53;;
51499;SDS011;39101;53.478;6.158;2024-03-22T01:13:03;60.73;;;35.77;;
51499;SDS011;39101;53.478;6.158;2024-03-22T01:15:28;56.30;;;34.13;;
51499;SDS011;39101;53.478;6.158;2024-03-22T01:17:56;57.13;;;34.37;;
51499;SDS011;39101;53.478;6.158;2024-03-22T01:20:23;61.27;;;36.50;;
51499;SDS011;39101;53.478;6.158;2024-03-22T01:22:48;57.80;;;34.23;;
51499;SDS011;39101;53.478;6.158;2024-03-22T01:25:17;63.97;;;34.63;;
51499;SDS011;39101;53.478;6.158;2024-03-22T01:27:44;59.50;;;35.10;;
51499;SDS011;39101;53.478;6.158;2024-03-22T01:30:10;60.87;;;34.50;;
51499;SDS011;39101;53.478;6.158;2024-03-22T01:32:37;71.63;;;38.13;;
51499;SDS011;39101;53.478;6.158;2024-03-22T01:35:03;64.43;;;38.03;;
51499;SDS011;39101;53.478;6.158;2024-03-22T01:37:29;66.37;;;35.43;;
51499;SDS011;39101;53.478;6.158;2024-03-22T01:39:56;66.93;;;34.93;;
51499;SDS011;39101;53.478;6.158;2024-03-22T01:42:23;65.63;;;35.60;;
51499;SDS011;39101;53.478;6.158;2024-03-22T01:44:48;62.10;;;34.47;;
51499;SDS011;39101;53.478;6.158;2024-03-22T01:47:15;68.17;;;36.53;;
51499;SDS011;39101;53.478;6.158;2024-03-22T01:49:41;67.30;;;38.30;;
51499;SDS011;39101;53.478;6.158;2024-03-22T01:52:09;58.33;;;34.83;;
51499;SDS011;39101;53.478;6.158;2024-03-22T01:54:35;65.17;;;35.50;;
51499;SDS011;39101;53.478;6.158;2024-03-22T01:57:02;60.57;;;33.10;;
51499;SDS011;39101;53.478;6.158;2024-03-22T01:59:33;68.83;;;33.63;;
51499;SDS011;39101;53.478;6.158;2024-03-22T02:02:05;55.77;;;31.63;;
51499;SDS011;39101;53.478;6.158;2024-03-22T02:04:31;56.67;;;30.83;;
51499;SDS011;39101;53.478;6.158;2024-03-22T02:06:57;58.60;;;31.10;;
51499;SDS011;39101;53.478;6.158;2024-03-22T02:09:24;60.83;;;32.40;;
51499;SDS011;39101;53.478;6.158;2024-03-22T02:12:00;53.60;;;28.17;;
51499;SDS011;39101;53.478;6.158;2024-03-22T02:14:26;56.30;;;32.27;;
51499;SDS011;39101;53.478;6.158;2024-03-22T02:16:52;62.07;;;33.10;;
51499;SDS011;39101;53.478;6.158;2024-03-22T02:19:17;63.50;;;33.30;;
51499;SDS011;39101;53.478;6.158;2024-03-22T02:21:43;54.23;;;29.63;;
51499;SDS011;39101;53.478;6.158;2024-03-22T02:24:09;51.63;;;30.17;;
51499;SDS011;39101;53.478;6.158;2024-03-22T02:26:34;59.10;;;29.77;;
51499;SDS011;39101;53.478;6.158;2024-03-22T02:29:00;57.63;;;29.13;;
51499;SDS011;39101;53.478;6.158;2024-03-22T02:31:26;57.53;;;30.07;;
51499;SDS011;39101;53.478;6.158;2024-03-22T02:33:52;55.63;;;28.80;;
51499;SDS011;39101;53.478;6.158;2024-03-22T02:36:18;51.67;;;28.00;;
51499;SDS011;39101;53.478;6.158;2024-03-22T02:38:43;53.93;;;28.30;;
51499;SDS011;39101;53.478;6.158;2024-03-22T02:41:09;53.50;;;26.63;;
51499;SDS011;39101;53.478;6.158;2024-03-22T02:43:35;51.50;;;27.10;;
51499;SDS011;39101;53.478;6.158;2024-03-22T02:46:00;55.53;;;28.10;;
51499;SDS011;39101;53.478;6.158;2024-03-22T02:48:26;58.37;;;28.67;;
51499;SDS011;39101;53.478;6.158;2024-03-22T02:50:57;54.80;;;29.87;;
51499;SDS011;39101;53.478;6.158;2024-03-22T02:53:23;58.47;;;28.50;;
51499;SDS011;39101;53.478;6.158;2024-03-22T02:55:48;56.80;;;27.83;;
51499;SDS011;39101;53.478;6.158;2024-03-22T02:58:16;56.80;;;29.00;;
51499;SDS011;39101;53.478;6.158;2024-03-22T03:00:42;58.27;;;29.97;;
51499;SDS011;39101;53.478;6.158;2024-03-22T03:03:08;56.97;;;29.07;;
51499;SDS011;39101;53.478;6.158;2024-03-22T03:05:34;54.50;;;27.73;;
51499;SDS011;39101;53.478;6.158;2024-03-22T03:08:00;55.67;;;28.63;;
51499;SDS011;39101;53.478;6.158;2024-03-22T03:10:26;59.10;;;28.47;;
51499;SDS011;39101;53.478;6.158;2024-03-22T03:12:53;60.40;;;30.20;;
51499;SDS011;39101;53.478;6.158;2024-03-22T03:15:19;62.83;;;31.43;;
51499;SDS011;39101;53.478;6.158;2024-03-22T03:17:45;58.00;;;28.43;;
51499;SDS011;39101;53.478;6.158;2024-03-22T03:20:11;57.90;;;29.50;;
51499;SDS011;39101;53.478;6.158;2024-03-22T03:22:41;59.13;;;29.63;;
51499;SDS011;39101;53.478;6.158;2024-03-22T03:25:07;50.27;;;26.07;;
51499;SDS011;39101;53.478;6.158;2024-03-22T03:27:33;61.33;;;28.70;;
51499;SDS011;39101;53.478;6.158;2024-03-22T03:29:59;61.50;;;30.07;;
51499;SDS011;39101;53.478;6.158;2024-03-22T03:32:26;53.63;;;27.47;;
51499;SDS011;39101;53.478;6.158;2024-03-22T03:34:52;57.77;;;28.43;;
51499;SDS011;39101;53.478;6.158;2024-03-22T03:37:18;56.30;;;26.93;;
51499;SDS011;39101;53.478;6.158;2024-03-22T03:39:44;51.47;;;24.53;;
51499;SDS011;39101;53.478;6.158;2024-03-22T03:42:11;57.17;;;29.03;;
51499;SDS011;39101;53.478;6.158;2024-03-22T03:44:36;60.47;;;28.53;;
51499;SDS011;39101;53.478;6.158;2024-03-22T03:47:02;65.03;;;27.73;;
51499;SDS011;39101;53.478;6.158;2024-03-22T03:49:28;64.23;;;29.47;;
51499;SDS011;39101;53.478;6.158;2024-03-22T03:51:55;60.23;;;29.37;;
51499;SDS011;39101;53.478;6.158;2024-03-22T03:54:21;52.63;;;25.17;;
51499;SDS011;39101;53.478;6.158;2024-03-22T03:56:46;54.13;;;26.47;;
51499;SDS011;39101;53.478;6.158;2024-03-22T03:59:12;60.00;;;27.53;;
51499;SDS011;39101;53.478;6.158;2024-03-22T04:01:38;61.27;;;28.60;;
51499;SDS011;39101;53.478;6.158;2024-03-22T04:04:03;58.47;;;28.93;;
51499;SDS011;39101;53.478;6.158;2024-03-22T04:06:29;58.90;;;29.10;;
51499;SDS011;39101;53.478;6.158;2024-03-22T04:08:55;59.17;;;27.73;;
51499;SDS011;39101;53.478;6.158;2024-03-22T04:11:22;56.40;;;25.07;;
51499;SDS011;39101;53.478;6.158;2024-03-22T04:13:54;55.63;;;26.40;;
51499;SDS011;39101;53.478;6.158;2024-03-22T04:16:20;59.97;;;27.47;;
51499;SDS011;39101;53.478;6.158;2024-03-22T04:18:45;46.97;;;24.60;;
51499;SDS011;39101;53.478;6.158;2024-03-22T04:21:14;57.07;;;26.33;;
51499;SDS011;39101;53.478;6.158;2024-03-22T04:23:40;54.33;;;26.47;;
51499;SDS011;39101;53.478;6.158;2024-03-22T04:26:05;59.23;;;25.90;;
51499;SDS011;39101;53.478;6.158;2024-03-22T04:28:31;58.93;;;25.23;;
51499;SDS011;39101;53.478;6.158;2024-03-22T04:31:01;49.53;;;25.57;;
51499;SDS011;39101;53.478;6.158;2024-03-22T04:33:31;52.83;;;22.87;;
51499;SDS011;39101;53.478;6.158;2024-03-22T04:35:58;44.17;;;22.67;;
51499;SDS011;39101;53.478;6.158;2024-03-22T04:38:24;50.13;;;23.73;;
51499;SDS011;39101;53.478;6.158;2024-03-22T04:40:52;53.70;;;23.20;;
51499;SDS011;39101;53.478;6.158;2024-03-22T04:43:19;52.23;;;25.47;;
51499;SDS011;39101;53.478;6.158;2024-03-22T04:45:46;48.20;;;19.77;;
51499;SDS011;39101;53.478;6.158;2024-03-22T04:48:21;44.97;;;20.43;;
51499;SDS011;39101;53.478;6.158;2024-03-22T04:50:48;53.40;;;23.47;;
51499;SDS011;39101;53.478;6.158;2024-03-22T04:53:17;44.30;;;19.75;;
51499;SDS011;39101;53.478;6.158;2024-03-22T04:55:43;43.80;;;20.83;;
51499;SDS011;39101;53.478;6.158;2024-03-22T04:58:19;44.37;;;19.63;;
51499;SDS011;39101;53.478;6.158;2024-03-22T05:00:46;45.23;;;21.83;;
51499;SDS011;39101;53.478;6.158;2024-03-22T05:03:14;48.00;;;22.00;;
51499;SDS011;39101;53.478;6.158;2024-03-22T05:06:00;53.73;;;20.27;;
51499;SDS011;39101;53.478;6.158;2024-03-22T05:08:28;43.00;;;19.73;;
51499;SDS011;39101;53.478;6.158;2024-03-22T05:10:54;47.40;;;19.63;;
51499;SDS011;39101;53.478;6.158;2024-03-22T05:13:19;46.70;;;20.90;;
51499;SDS011;39101;53.478;6.158;2024-03-22T05:15:46;52.90;;;21.23;;
51499;SDS011;39101;53.478;6.158;2024-03-22T05:18:13;40.47;;;18.13;;
51499;SDS011;39101;53.478;6.158;2024-03-22T05:20:39;38.67;;;18.13;;
51499;SDS011;39101;53.478;6.158;2024-03-22T05:23:04;41.07;;;18.93;;
51499;SDS011;39101;53.478;6.158;2024-03-22T05:25:30;45.13;;;19.97;;
51499;SDS011;39101;53.478;6.158;2024-03-22T05:27:55;41.70;;;20.27;;
51499;SDS011;39101;53.478;6.158;2024-03-22T05:30:21;44.57;;;19.00;;
51499;SDS011;39101;53.478;6.158;2024-03-22T05:32:47;37.63;;;17.70;;
51499;SDS011;39101;53.478;6.158;2024-03-22T05:35:14;36.00;;;17.40;;
51499;SDS011;39101;53.478;6.158;2024-03-22T05:37:40;39.83;;;17.97;;
51499;SDS011;39101;53.478;6.158;2024-03-22T05:40:06;33.93;;;17.27;;
51499;SDS011;39101;53.478;6.158;2024-03-22T05:42:34;49.00;;;19.63;;
51499;SDS011;39101;53.478;6.158;2024-03-22T05:45:01;53.17;;;19.63;;
51499;SDS011;39101;53.478;6.158;2024-03-22T05:47:27;41.77;;;16.90;;
51499;SDS011;39101;53.478;6.158;2024-03-22T05:49:56;40.03;;;17.83;;
51499;SDS011;39101;53.478;6.158;2024-03-22T05:52:22;43.17;;;18.53;;
51499;SDS011;39101;53.478;6.158;2024-03-22T05:54:48;48.43;;;20.10;;
51499;SDS011;39101;53.478;6.158;2024-03-22T05:57:14;52.83;;;18.87;;
51499;SDS011;39101;53.478;6.158;2024-03-22T05:59:39;44.47;;;18.60;;
51499;SDS011;39101;53.478;6.158;2024-03-22T06:02:05;44.60;;;18.90;;
51499;SDS011;39101;53.478;6.158;2024-03-22T06:04:31;46.50;;;20.57;;
51499;SDS011;39101;53.478;6.158;2024-03-22T06:07:00;42.00;;;19.50;;
51499;SDS011;39101;53.478;6.158;2024-03-22T06:09:28;42.47;;;19.60;;
51499;SDS011;39101;53.478;6.158;2024-03-22T06:12:13;52.40;;;20.73;;
51499;SDS011;39101;53.478;6.158;2024-03-22T06:14:41;42.97;;;19.10;;
51499;SDS011;39101;53.478;6.158;2024-03-22T06:17:08;43.03;;;18.97;;
51499;SDS011;39101;53.478;6.158;2024-03-22T06:19:35;44.70;;;19.97;;
51499;SDS011;39101;53.478;6.158;2024-03-22T06:22:03;44.73;;;19.73;;
51499;SDS011;39101;53.478;6.158;2024-03-22T06:24:32;45.63;;;18.13;;
51499;SDS011;39101;53.478;6.158;2024-03-22T06:26:59;41.07;;;17.33;;
51499;SDS011;39101;53.478;6.158;2024-03-22T06:29:25;45.33;;;19.60;;
51499;SDS011;39101;53.478;6.158;2024-03-22T06:31:51;39.63;;;16.47;;
51499;SDS011;39101;53.478;6.158;2024-03-22T06:34:17;42.47;;;17.47;;
51499;SDS011;39101;53.478;6.158;2024-03-22T06:36:43;40.00;;;15.47;;
51499;SDS011;39101;53.478;6.158;2024-03-22T06:39:09;37.63;;;18.23;;
51499;SDS011;39101;53.478;6.158;2024-03-22T06:41:35;30.37;;;15.33;;
51499;SDS011;39101;53.478;6.158;2024-03-22T06:44:01;35.10;;;16.30;;
51499;SDS011;39101;53.478;6.158;2024-03-22T06:46:28;33.43;;;16.10;;
51499;SDS011;39101;53.478;6.158;2024-03-22T06:48:53;35.23;;;15.57;;
51499;SDS011;39101;53.478;6.158;2024-03-22T06:51:21;37.70;;;16.50;;
51499;SDS011;39101;53.478;6.158;2024-03-22T06:53:48;37.90;;;17.47;;
51499;SDS011;39101;53.478;6.158;2024-03-22T06:56:13;41.93;;;16.87;;
51499;SDS011;39101;53.478;6.158;2024-03-22T06:58:43;34.60;;;14.73;;
51499;SDS011;39101;53.478;6.158;2024-03-22T07:01:09;32.80;;;14.98;;
51499;SDS011;39101;53.478;6.158;2024-03-22T07:03:35;37.13;;;15.07;;
51499;SDS011;39101;53.478;6.158;2024-03-22T07:06:00;29.00;;;14.67;;
51499;SDS011;39101;53.478;6.158;2024-03-22T07:08:26;29.23;;;14.73;;
51499;SDS011;39101;53.478;6.158;2024-03-22T07:10:53;34.00;;;14.60;;
51499;SDS011;39101;53.478;6.158;2024-03-22T07:13:19;26.53;;;12.90;;
51499;SDS011;39101;53.478;6.158;2024-03-22T07:15:45;30.67;;;14.17;;
51499;SDS011;39101;53.478;6.158;2024-03-22T07:18:13;35.10;;;13.83;;
51499;SDS011;39101;53.478;6.158;2024-03-22T07:20:39;26.70;;;12.50;;
51499;SDS011;39101;53.478;6.158;2024-03-22T07:23:05;30.40;;;14.30;;
51499;SDS011;39101;53.478;6.158;2024-03-22T07:25:31;36.40;;;13.33;;
51499;SDS011;39101;53.478;6.158;2024-03-22T07:27:56;34.03;;;13.83;;
51499;SDS011;39101;53.478;6.158;2024-03-22T07:30:22;26.97;;;13.10;;
51499;SDS011;39101;53.478;6.158;2024-03-22T07:32:48;32.97;;;12.77;;
51499;SDS011;39101;53.478;6.158;2024-03-22T07:35:13;31.33;;;12.37;;
51499;SDS011;39101;53.478;6.158;2024-03-22T07:37:39;28.80;;;11.43;;
51499;SDS011;39101;53.478;6.158;2024-03-22T07:40:05;32.47;;;13.77;;
51499;SDS011;39101;53.478;6.158;2024-03-22T07:42:31;25.07;;;12.07;;
51499;SDS011;39101;53.478;6.158;2024-03-22T07:44:57;26.57;;;12.53;;
51499;SDS011;39101;53.478;6.158;2024-03-22T07:47:22;30.53;;;13.23;;
51499;SDS011;39101;53.478;6.158;2024-03-22T07:49:48;26.87;;;11.87;;
51499;SDS011;39101;53.478;6.158;2024-03-22T07:52:14;25.50;;;13.23;;
51499;SDS011;39101;53.478;6.158;2024-03-22T07:54:40;33.67;;;13.43;;
51499;SDS011;39101;53.478;6.158;2024-03-22T07:57:05;25.40;;;11.33;;
51499;SDS011;39101;53.478;6.158;2024-03-22T07:59:31;28.70;;;12.60;;
51499;SDS011;39101;53.478;6.158;2024-03-22T08:01:57;26.47;;;13.50;;
51499;SDS011;39101;53.478;6.158;2024-03-22T08:04:23;30.33;;;13.87;;
51499;SDS011;39101;53.478;6.158;2024-03-22T08:06:50;23.63;;;13.00;;
51499;SDS011;39101;53.478;6.158;2024-03-22T08:09:19;25.17;;;13.77;;
51499;SDS011;39101;53.478;6.158;2024-03-22T08:11:44;24.47;;;13.30;;
51499;SDS011;39101;53.478;6.158;2024-03-22T08:14:10;25.67;;;13.37;;
51499;SDS011;39101;53.478;6.158;2024-03-22T08:16:36;21.70;;;12.67;;
51499;SDS011;39101;53.478;6.158;2024-03-22T08:19:03;26.50;;;14.07;;
51499;SDS011;39101;53.478;6.158;2024-03-22T08:21:29;23.87;;;13.20;;
51499;SDS011;39101;53.478;6.158;2024-03-22T08:23:54;28.37;;;12.20;;
51499;SDS011;39101;53.478;6.158;2024-03-22T08:26:20;20.53;;;10.53;;
51499;SDS011;39101;53.478;6.158;2024-03-22T08:28:47;29.10;;;11.67;;
51499;SDS011;39101;53.478;6.158;2024-03-22T08:31:14;27.73;;;12.10;;
51499;SDS011;39101;53.478;6.158;2024-03-22T08:33:42;31.03;;;12.47;;
51499;SDS011;39101;53.478;6.158;2024-03-22T08:36:07;26.27;;;12.60;;
51499;SDS011;39101;53.478;6.158;2024-03-22T08:38:33;27.73;;;12.80;;
51499;SDS011;39101;53.478;6.158;2024-03-22T08:40:59;22.53;;;11.17;;
51499;SDS011;39101;53.478;6.158;2024-03-22T08:43:25;23.07;;;10.70;;
51499;SDS011;39101;53.478;6.158;2024-03-22T08:45:54;19.80;;;9.87;;
51499;SDS011;39101;53.478;6.158;2024-03-22T08:48:39;23.37;;;9.47;;
51499;SDS011;39101;53.478;6.158;2024-03-22T08:51:05;25.60;;;10.47;;
51499;SDS011;39101;53.478;6.158;2024-03-22T08:53:30;21.90;;;10.07;;
51499;SDS011;39101;53.478;6.158;2024-03-22T08:55:56;22.63;;;8.57;;
51499;SDS011;39101;53.478;6.158;2024-03-22T08:58:22;20.73;;;8.67;;
51499;SDS011;39101;53.478;6.158;2024-03-22T09:00:51;26.80;;;9.57;;
51499;SDS011;39101;53.478;6.158;2024-03-22T09:03:16;22.10;;;8.40;;
51499;SDS011;39101;53.478;6.158;2024-03-22T09:05:43;21.47;;;9.03;;
51499;SDS011;39101;53.478;6.158;2024-03-22T09:08:10;26.40;;;10.93;;
51499;SDS011;39101;53.478;6.158;2024-03-22T09:10:37;24.93;;;8.47;;
51499;SDS011;39101;53.478;6.158;2024-03-22T09:13:05;23.30;;;7.93;;
51499;SDS011;39101;53.478;6.158;2024-03-22T09:15:31;19.23;;;7.90;;
51499;SDS011;39101;53.478;6.158;2024-03-22T09:17:57;20.30;;;8.67;;
51499;SDS011;39101;53.478;6.158;2024-03-22T09:20:22;26.63;;;8.30;;
51499;SDS011;39101;53.478;6.158;2024-03-22T09:22:48;21.90;;;7.83;;
51499;SDS011;39101;53.478;6.158;2024-03-22T09:25:15;22.57;;;8.30;;
51499;SDS011;39101;53.478;6.158;2024-03-22T09:27:41;20.67;;;8.60;;
51499;SDS011;39101;53.478;6.158;2024-03-22T09:30:07;25.67;;;9.67;;
51499;SDS011;39101;53.478;6.158;2024-03-22T09:32:35;20.17;;;7.63;;
51499;SDS011;39101;53.478;6.158;2024-03-22T09:35:02;18.03;;;7.77;;
51499;SDS011;39101;53.478;6.158;2024-03-22T09:37:28;24.40;;;8.20;;
51499;SDS011;39101;53.478;6.158;2024-03-22T09:39:53;24.53;;;7.60;;
51499;SDS011;39101;53.478;6.158;2024-03-22T09:42:19;19.30;;;8.13;;
51499;SDS011;39101;53.478;6.158;2024-03-22T09:44:48;20.93;;;7.10;;
51499;SDS011;39101;53.478;6.158;2024-03-22T09:47:18;18.77;;;7.23;;
51499;SDS011;39101;53.478;6.158;2024-03-22T09:49:46;24.07;;;8.13;;
51499;SDS011;39101;53.478;6.158;2024-03-22T09:52:15;30.70;;;8.77;;
51499;SDS011;39101;53.478;6.158;2024-03-22T09:54:46;19.40;;;7.70;;
51499;SDS011;39101;53.478;6.158;2024-03-22T09:57:15;21.07;;;8.90;;
51499;SDS011;39101;53.478;6.158;2024-03-22T09:59:47;24.95;;;8.15;;
51499;SDS011;39101;53.478;6.158;2024-03-22T10:02:13;20.07;;;6.53;;
51499;SDS011;39101;53.478;6.158;2024-03-22T10:04:40;19.90;;;6.93;;
51499;SDS011;39101;53.478;6.158;2024-03-22T10:07:06;20.33;;;7.20;;
51499;SDS011;39101;53.478;6.158;2024-03-22T10:09:33;22.43;;;7.13;;
51499;SDS011;39101;53.478;6.158;2024-03-22T10:12:00;21.47;;;7.07;;
51499;SDS011;39101;53.478;6.158;2024-03-22T10:14:26;21.70;;;6.93;;
51499;SDS011;39101;53.478;6.158;2024-03-22T10:16:52;15.10;;;5.77;;
51499;SDS011;39101;53.478;6.158;2024-03-22T10:19:22;23.07;;;6.60;;
51499;SDS011;39101;53.478;6.158;2024-03-22T10:22:04;19.17;;;6.65;;
51499;SDS011;39101;53.478;6.158;2024-03-22T10:24:32;26.90;;;7.93;;
51499;SDS011;39101;53.478;6.158;2024-03-22T10:26:59;27.00;;;7.63;;
51499;SDS011;39101;53.478;6.158;2024-03-22T10:29:25;24.93;;;6.97;;
51499;SDS011;39101;53.478;6.158;2024-03-22T10:31:54;21.37;;;7.67;;
51499;SDS011;39101;53.478;6.158;2024-03-22T10:34:21;36.00;;;8.68;;
51499;SDS011;39101;53.478;6.158;2024-03-22T10:36:50;28.58;;;7.03;;
51499;SDS011;39101;53.478;6.158;2024-03-22T10:41:58;20.70;;;7.87;;
51499;SDS011;39101;53.478;6.158;2024-03-22T10:44:25;22.90;;;7.20;;
51499;SDS011;39101;53.478;6.158;2024-03-22T10:46:51;28.00;;;7.60;;
51499;SDS011;39101;53.478;6.158;2024-03-22T10:49:20;28.77;;;8.73;;
51499;SDS011;39101;53.478;6.158;2024-03-22T10:51:51;27.97;;;7.40;;
51499;SDS011;39101;53.478;6.158;2024-03-22T10:54:24;26.80;;;8.20;;
51499;SDS011;39101;53.478;6.158;2024-03-22T10:56:53;28.17;;;7.67;;
51499;SDS011;39101;53.478;6.158;2024-03-22T10:59:21;24.83;;;7.23;;
51499;SDS011;39101;53.478;6.158;2024-03-22T11:01:48;28.97;;;8.00;;
51499;SDS011;39101;53.478;6.158;2024-03-22T11:04:17;25.00;;;7.03;;
51499;SDS011;39101;53.478;6.158;2024-03-22T11:09:22;25.57;;;7.00;;
51499;SDS011;39101;53.478;6.158;2024-03-22T11:11:52;22.60;;;6.70;;
51499;SDS011;39101;53.478;6.158;2024-03-22T11:14:18;28.50;;;8.90;;
51499;SDS011;39101;53.478;6.158;2024-03-22T11:16:49;19.40;;;6.73;;
51499;SDS011;39101;53.478;6.158;2024-03-22T11:19:16;30.83;;;6.60;;
51499;SDS011;39101;53.478;6.158;2024-03-22T11:21:42;23.50;;;6.30;;
51499;SDS011;39101;53.478;6.158;2024-03-22T11:24:07;29.47;;;7.43;;
51499;SDS011;39101;53.478;6.158;2024-03-22T11:26:33;22.17;;;7.03;;
51499;SDS011;39101;53.478;6.158;2024-03-22T11:28:59;29.63;;;6.77;;
51499;SDS011;39101;53.478;6.158;2024-03-22T11:31:26;21.00;;;6.03;;
51499;SDS011;39101;53.478;6.158;2024-03-22T11:33:53;23.90;;;6.17;;
51499;SDS011;39101;53.478;6.158;2024-03-22T11:36:19;20.20;;;6.00;;
51499;SDS011;39101;53.478;6.158;2024-03-22T11:38:46;20.20;;;6.03;;
51499;SDS011;39101;53.478;6.158;2024-03-22T11:41:15;19.03;;;5.27;;
51499;SDS011;39101;53.478;6.158;2024-03-22T11:43:46;16.63;;;5.63;;
51499;SDS011;39101;53.478;6.158;2024-03-22T11:46:14;20.23;;;5.13;;
51499;SDS011;39101;53.478;6.158;2024-03-22T11:48:41;19.23;;;5.17;;
51499;SDS011;39101;53.478;6.158;2024-03-22T11:51:07;22.93;;;5.17;;
51499;SDS011;39101;53.478;6.158;2024-03-22T11:53:34;20.10;;;5.43;;
51499;SDS011;39101;53.478;6.158;2024-03-22T11:56:03;26.07;;;5.33;;
51499;SDS011;39101;53.478;6.158;2024-03-22T11:58:33;12.40;;;4.43;;
51499;SDS011;39101;53.478;6.158;2024-03-22T12:00:58;28.00;;;5.50;;
51499;SDS011;39101;53.478;6.158;2024-03-22T12:03:24;26.83;;;5.53;;
51499;SDS011;39101;53.478;6.158;2024-03-22T12:05:52;18.77;;;6.33;;
51499;SDS011;39101;53.478;6.158;2024-03-22T12:08:19;17.57;;;4.93;;
51499;SDS011;39101;53.478;6.158;2024-03-22T12:10:45;30.83;;;7.80;;
51499;SDS011;39101;53.478;6.158;2024-03-22T12:13:11;20.73;;;5.63;;
51499;SDS011;39101;53.478;6.158;2024-03-22T12:15:36;25.37;;;8.37;;
51499;SDS011;39101;53.478;6.158;2024-03-22T12:18:02;18.67;;;6.50;;
51499;SDS011;39101;53.478;6.158;2024-03-22T12:20:30;24.97;;;6.83;;
51499;SDS011;39101;53.478;6.158;2024-03-22T12:22:57;27.53;;;7.60;;
51499;SDS011;39101;53.478;6.158;2024-03-22T12:25:22;25.50;;;6.17;;
51499;SDS011;39101;53.478;6.158;2024-03-22T12:27:49;19.80;;;6.33;;
51499;SDS011;39101;53.478;6.158;2024-03-22T12:30:16;21.03;;;5.90;;
51499;SDS011;39101;53.478;6.158;2024-03-22T12:32:42;23.10;;;6.97;;
51499;SDS011;39101;53.478;6.158;2024-03-22T12:35:08;24.10;;;6.70;;
51499;SDS011;39101;53.478;6.158;2024-03-22T12:37:33;24.30;;;6.20;;
51499;SDS011;39101;53.478;6.158;2024-03-22T12:40:00;30.33;;;7.50;;
51499;SDS011;39101;53.478;6.158;2024-03-22T12:42:27;27.20;;;5.70;;
51499;SDS011;39101;53.478;6.158;2024-03-22T12:44:53;24.77;;;7.10;;
51499;SDS011;39101;53.478;6.158;2024-03-22T12:47:19;28.80;;;7.77;;
51499;SDS011;39101;53.478;6.158;2024-03-22T12:49:44;25.00;;;7.43;;
51499;SDS011;39101;53.478;6.158;2024-03-22T12:52:11;27.83;;;7.13;;
51499;SDS011;39101;53.478;6.158;2024-03-22T12:54:37;28.17;;;7.30;;
51499;SDS011;39101;53.478;6.158;2024-03-22T12:57:03;23.97;;;6.63;;
51499;SDS011;39101;53.478;6.158;2024-03-22T12:59:28;21.43;;;6.27;;
51499;SDS011;39101;53.478;6.158;2024-03-22T13:01:54;24.17;;;6.00;;
51499;SDS011;39101;53.478;6.158;2024-03-22T13:04:20;23.03;;;5.70;;
51499;SDS011;39101;53.478;6.158;2024-03-22T13:06:46;26.90;;;6.97;;
51499;SDS011;39101;53.478;6.158;2024-03-22T13:09:11;31.30;;;6.77;;
51499;SDS011;39101;53.478;6.158;2024-03-22T13:11:41;24.05;;;7.13;;
51499;SDS011;39101;53.478;6.158;2024-03-22T13:14:07;22.33;;;5.67;;
51499;SDS011;39101;53.478;6.158;2024-03-22T13:16:32;24.27;;;7.87;;
51499;SDS011;39101;53.478;6.158;2024-03-22T13:18:59;33.17;;;7.47;;
51499;SDS011;39101;53.478;6.158;2024-03-22T13:21:24;25.87;;;7.07;;
51499;SDS011;39101;53.478;6.158;2024-03-22T13:23:51;28.23;;;5.70;;
51499;SDS011;39101;53.478;6.158;2024-03-22T13:26:17;29.50;;;6.17;;
51499;SDS011;39101;53.478;6.158;2024-03-22T13:28:42;26.97;;;5.87;;
51499;SDS011;39101;53.478;6.158;2024-03-22T13:31:08;27.53;;;6.07;;
51499;SDS011;39101;53.478;6.158;2024-03-22T13:33:34;33.17;;;7.37;;
51499;SDS011;39101;53.478;6.158;2024-03-22T13:36:00;24.80;;;6.70;;
51499;SDS011;39101;53.478;6.158;2024-03-22T13:38:26;28.60;;;6.67;;
51499;SDS011;39101;53.478;6.158;2024-03-22T13:40:57;21.83;;;5.93;;
51499;SDS011;39101;53.478;6.158;2024-03-22T13:43:26;28.87;;;5.23;;
51499;SDS011;39101;53.478;6.158;2024-03-22T13:45:52;35.40;;;5.97;;
51499;SDS011;39101;53.478;6.158;2024-03-22T13:48:22;28.27;;;6.13;;
51499;SDS011;39101;53.478;6.158;2024-03-22T13:53:24;31.10;;;6.15;;
51499;SDS011;39101;53.478;6.158;2024-03-22T13:55:50;25.20;;;6.00;;
51499;SDS011;39101;53.478;6.158;2024-03-22T13:58:18;25.80;;;6.93;;
51499;SDS011;39101;53.478;6.158;2024-03-22T14:00:43;29.43;;;5.73;;
51499;SDS011;39101;53.478;6.158;2024-03-22T14:03:09;21.73;;;5.10;;
51499;SDS011;39101;53.478;6.158;2024-03-22T14:05:35;24.53;;;4.93;;
51499;SDS011;39101;53.478;6.158;2024-03-22T14:08:02;27.33;;;5.40;;
51499;SDS011;39101;53.478;6.158;2024-03-22T14:10:29;30.27;;;5.60;;
51499;SDS011;39101;53.478;6.158;2024-03-22T14:12:58;23.47;;;4.47;;
51499;SDS011;39101;53.478;6.158;2024-03-22T14:15:25;28.13;;;5.53;;
51499;SDS011;39101;53.478;6.158;2024-03-22T14:17:53;30.33;;;5.33;;
51499;SDS011;39101;53.478;6.158;2024-03-22T14:20:20;31.60;;;5.97;;
51499;SDS011;39101;53.478;6.158;2024-03-22T14:22:46;28.10;;;4.90;;
51499;SDS011;39101;53.478;6.158;2024-03-22T14:25:13;29.33;;;7.37;;
51499;SDS011;39101;53.478;6.158;2024-03-22T14:27:38;25.03;;;4.93;;
51499;SDS011;39101;53.478;6.158;2024-03-22T14:30:04;30.23;;;6.17;;
51499;SDS011;39101;53.478;6.158;2024-03-22T14:32:34;28.00;;;6.03;;